Time;durP1;ratioP1;P1;durP2;ratioP2;P2;SDS_P1;SDS_P2;PMS_P1;PMS_P2;Temp;Humidity;BMP_temperature;BMP_pressure;BME280_temperature;BME280_humidity;BME280_pressure;Samples;Min_cycle;Max_cycle;Signal;HPM_P1;HPM_P2
2022/03/13 00:00:48;;;;;;;15.20;9.83;;;4.30;40.60;;;;;;5005026;28;20251;-72
2022/03/13 00:03:15;;;;;;;17.73;8.93;;;4.30;40.40;;;;;;5015912;28;20195;-72
2022/03/13 00:05:45;;;;;;;16.73;8.67;;;4.20;40.80;;;;;;5011475;28;20286;-71
2022/03/13 00:08:32;;;;;;;15.50;9.63;;;4.20;40.80;;;;;;5013299;28;20743;-73
2022/03/13 00:11:00;;;;;;;13.73;9.17;;;4.20;40.10;;;;;;5000974;28;20687;-71
2022/03/13 00:13:31;;;;;;;10.03;7.53;;;4.20;39.40;;;;;;5004107;28;20203;-72
2022/03/13 00:15:59;;;;;;;15.27;10.07;;;4.20;39.70;;;;;;5005767;28;20195;-71
2022/03/13 00:18:24;;;;;;;12.53;7.80;;;4.20;39.40;;;;;;5007246;28;20204;-69
2022/03/13 00:20:51;;;;;;;12.17;8.77;;;4.10;39.40;;;;;;5007995;28;20193;-77
2022/03/13 00:23:17;;;;;;;16.23;9.17;;;4.10;39.80;;;;;;5007535;28;20200;-72
2022/03/13 00:25:42;;;;;;;13.13;8.43;;;4.00;40.00;;;;;;5004559;28;20944;-70
2022/03/13 00:28:08;;;;;;;17.63;8.47;;;4.00;40.20;;;;;;4976043;28;20288;-71
2022/03/13 00:30:35;;;;;;;11.63;8.13;;;4.00;40.20;;;;;;4992682;28;20194;-71
2022/03/13 00:33:01;;;;;;;12.50;8.63;;;4.00;40.70;;;;;;5012858;28;20196;-71
2022/03/13 00:35:28;;;;;;;15.23;9.13;;;3.90;40.80;;;;;;5008067;28;20674;-71
2022/03/13 00:37:55;;;;;;;10.50;8.67;;;3.90;41.00;;;;;;5011867;28;20200;-72
2022/03/13 00:40:20;;;;;;;15.17;9.63;;;3.80;41.00;;;;;;4996111;28;20198;-71
2022/03/13 00:42:46;;;;;;;12.53;8.93;;;3.80;41.80;;;;;;5010839;28;20199;-71
2022/03/13 00:45:13;;;;;;;16.67;9.83;;;3.80;41.30;;;;;;5018312;28;20219;-73
2022/03/13 00:47:38;;;;;;;12.67;8.90;;;3.70;41.50;;;;;;4992418;28;20200;-71
2022/03/13 00:50:04;;;;;;;13.53;8.13;;;3.70;41.40;;;;;;4994727;28;20203;-72
2022/03/13 00:52:30;;;;;;;11.57;7.90;;;3.60;41.30;;;;;;5009547;28;20210;-71
2022/03/13 00:54:56;;;;;;;13.17;10.17;;;3.70;41.30;;;;;;4990556;28;20291;-72
2022/03/13 00:57:21;;;;;;;14.87;9.27;;;3.60;41.70;;;;;;5014624;28;20210;-71
2022/03/13 00:59:47;;;;;;;15.00;9.50;;;3.50;41.90;;;;;;4998188;28;20297;-72
2022/03/13 01:02:14;;;;;;;12.50;8.50;;;3.40;41.70;;;;;;4995972;28;20692;-71
2022/03/13 01:04:42;;;;;;;12.60;9.17;;;3.40;41.90;;;;;;5026228;28;20245;-70
2022/03/13 01:07:14;;;;;;;17.30;9.37;;;3.40;42.00;;;;;;5014442;28;20433;-74
2022/03/13 01:09:39;;;;;;;14.73;9.03;;;3.30;42.40;;;;;;4993912;28;20188;-78
2022/03/13 01:12:08;;;;;;;17.73;9.80;;;3.30;42.30;;;;;;5005699;28;20621;-74
2022/03/13 01:14:34;;;;;;;13.30;8.83;;;3.30;42.00;;;;;;5009389;28;20188;-72
2022/03/13 01:17:05;;;;;;;14.30;9.27;;;3.30;42.20;;;;;;5018394;28;20214;-72
2022/03/13 01:19:31;;;;;;;12.50;8.10;;;3.30;42.30;;;;;;5009698;28;20208;-74
2022/03/13 01:21:56;;;;;;;14.10;8.50;;;3.20;42.30;;;;;;5010588;28;20694;-70
2022/03/13 01:24:46;;;;;;;13.23;7.80;;;3.20;42.10;;;;;;5018413;28;20191;-80
2022/03/13 01:27:16;;;;;;;11.03;7.93;;;3.20;42.00;;;;;;5007281;28;20232;-71
2022/03/13 01:29:42;;;;;;;16.27;9.50;;;3.10;42.00;;;;;;5006065;28;20275;-76
2022/03/13 01:32:09;;;;;;;14.37;8.17;;;3.10;42.30;;;;;;5008329;28;20215;-75
2022/03/13 01:34:35;;;;;;;19.73;9.60;;;3.00;42.20;;;;;;5012731;28;20190;-73
2022/03/13 01:37:01;;;;;;;12.03;8.27;;;3.00;42.20;;;;;;5004487;28;20212;-82
2022/03/13 01:39:28;;;;;;;17.00;8.63;;;3.00;42.30;;;;;;4995550;28;20528;-77
2022/03/13 01:41:53;;;;;;;14.67;9.03;;;3.00;42.10;;;;;;5005951;28;20223;-73
2022/03/13 01:44:19;;;;;;;16.83;8.63;;;2.90;42.30;;;;;;5010331;28;20249;-76
2022/03/13 01:46:46;;;;;;;9.03;7.03;;;3.00;42.80;;;;;;5005843;28;20199;-71
2022/03/13 01:49:11;;;;;;;12.30;8.10;;;2.90;42.10;;;;;;5012943;28;20175;-73
2022/03/13 01:51:38;;;;;;;12.17;8.33;;;2.90;41.90;;;;;;5009975;28;20848;-71
2022/03/13 01:54:07;;;;;;;16.17;8.87;;;2.90;41.90;;;;;;5006536;28;20230;-75
2022/03/13 01:56:34;;;;;;;16.03;9.00;;;2.90;42.00;;;;;;5012268;28;20196;-79
2022/03/13 01:59:01;;;;;;;11.97;7.70;;;2.80;42.00;;;;;;4999090;28;20210;-75
2022/03/13 02:01:28;;;;;;;12.60;7.53;;;2.90;41.70;;;;;;5004579;28;20184;-71
2022/03/13 02:03:54;;;;;;;12.23;8.40;;;2.90;41.50;;;;;;5012459;28;20180;-74
2022/03/13 02:06:20;;;;;;;13.03;9.10;;;2.90;41.40;;;;;;5012327;28;20245;-71
2022/03/13 02:08:47;;;;;;;10.83;7.87;;;2.90;41.50;;;;;;5012087;28;20214;-73
2022/03/13 02:11:19;;;;;;;15.93;8.70;;;2.80;41.50;;;;;;5005692;28;20278;-75
2022/03/13 02:13:47;;;;;;;12.80;9.10;;;2.80;41.50;;;;;;5005719;28;20274;-75
2022/03/13 02:16:14;;;;;;;10.27;7.97;;;2.80;41.70;;;;;;4993006;28;20676;-75
2022/03/13 02:18:40;;;;;;;12.63;8.03;;;2.80;41.70;;;;;;5012066;28;20211;-74
2022/03/13 02:21:09;;;;;;;11.17;7.93;;;2.70;41.70;;;;;;5009489;28;20199;-72
2022/03/13 02:23:36;;;;;;;12.83;8.03;;;2.70;41.80;;;;;;5005887;28;20204;-72
2022/03/13 02:26:04;;;;;;;13.47;8.63;;;2.70;41.90;;;;;;5010492;28;20232;-78
2022/03/13 02:28:32;;;;;;;9.60;7.20;;;2.80;41.80;;;;;;5013526;28;20261;-70
2022/03/13 02:31:11;;;;;;;15.93;9.80;;;2.70;41.90;;;;;;5005811;28;20188;-71
2022/03/13 02:33:36;;;;;;;12.70;8.77;;;2.80;41.70;;;;;;5013019;28;20242;-73
2022/03/13 02:36:05;;;;;;;14.40;9.90;;;2.70;42.00;;;;;;5014601;28;20234;-74
2022/03/13 02:38:31;;;;;;;13.87;8.63;;;2.70;41.90;;;;;;5012444;28;20317;-73
2022/03/13 02:40:58;;;;;;;14.30;9.13;;;2.70;41.90;;;;;;5006005;28;20282;-74
2022/03/13 02:43:24;;;;;;;13.20;8.53;;;2.70;42.00;;;;;;5011624;28;20247;-71
2022/03/13 02:45:52;;;;;;;11.50;8.63;;;2.70;42.10;;;;;;5004894;28;20657;-71
2022/03/13 02:48:18;;;;;;;14.23;9.43;;;2.70;42.10;;;;;;5012324;28;20725;-72
2022/03/13 02:50:44;;;;;;;11.73;8.87;;;2.70;42.10;;;;;;5004967;28;20207;-71
2022/03/13 02:53:10;;;;;;;12.73;8.67;;;2.80;42.20;;;;;;5016577;28;20203;-69
2022/03/13 02:55:35;;;;;;;15.07;9.23;;;2.90;41.90;;;;;;5005898;28;20230;-69
2022/03/13 02:58:01;;;;;;;17.57;9.97;;;3.20;41.50;;;;;;5017606;28;20214;-69
2022/03/13 03:00:49;;;;;;;11.37;8.60;;;3.00;41.30;;;;;;5022086;28;20192;-69
2022/03/13 03:03:17;;;;;;;11.03;8.43;;;3.00;41.90;;;;;;5015391;28;20229;-71
2022/03/13 03:05:43;;;;;;;16.63;10.13;;;2.80;42.00;;;;;;5017589;28;20192;-70
2022/03/13 03:08:09;;;;;;;15.10;8.40;;;2.60;42.40;;;;;;5016643;28;20207;-71
2022/03/13 03:10:36;;;;;;;15.97;8.93;;;2.50;42.40;;;;;;4987524;28;20722;-71
2022/03/13 03:13:02;;;;;;;13.67;8.87;;;2.50;42.30;;;;;;5017551;28;20207;-74
2022/03/13 03:15:27;;;;;;;11.53;7.50;;;2.40;42.40;;;;;;5022199;28;20205;-72
2022/03/13 03:17:53;;;;;;;14.50;8.43;;;2.50;42.80;;;;;;5003794;28;20231;-72
2022/03/13 03:20:20;;;;;;;13.67;9.57;;;2.50;42.30;;;;;;5005244;28;20200;-72
2022/03/13 03:22:47;;;;;;;11.67;7.93;;;2.70;42.10;;;;;;5009741;28;20211;-71
2022/03/13 03:25:13;;;;;;;13.60;8.17;;;2.60;42.20;;;;;;5005811;28;20208;-70
2022/03/13 03:27:41;;;;;;;13.37;8.50;;;2.50;42.30;;;;;;5014256;28;20223;-70
2022/03/13 03:30:07;;;;;;;13.27;8.83;;;2.30;42.40;;;;;;5019966;28;20231;-72
2022/03/13 03:32:33;;;;;;;14.73;8.43;;;2.20;42.80;;;;;;4990417;28;20204;-71
2022/03/13 03:34:58;;;;;;;13.50;9.37;;;2.30;43.10;;;;;;5007266;28;20725;-70
2022/03/13 03:37:25;;;;;;;14.80;9.90;;;2.20;42.90;;;;;;5008974;28;20187;-70
2022/03/13 03:39:50;;;;;;;14.33;9.37;;;2.20;42.80;;;;;;5007860;28;20730;-70
2022/03/13 03:42:16;;;;;;;11.03;8.50;;;2.20;42.80;;;;;;4993265;28;20217;-72
2022/03/13 03:44:41;;;;;;;16.03;9.47;;;2.30;42.70;;;;;;5013646;28;20176;-72
2022/03/13 03:47:07;;;;;;;15.77;9.70;;;2.20;42.50;;;;;;4987811;28;20196;-72
2022/03/13 03:49:34;;;;;;;13.20;8.40;;;2.20;42.40;;;;;;5009987;28;20715;-72
2022/03/13 03:51:59;;;;;;;15.17;8.97;;;2.20;42.50;;;;;;5004496;28;20196;-71
2022/03/13 03:54:25;;;;;;;13.17;7.70;;;2.20;42.40;;;;;;5011937;28;20802;-72
2022/03/13 03:56:51;;;;;;;12.10;7.77;;;2.20;42.40;;;;;;5003007;28;20254;-72
2022/03/13 03:59:20;;;;;;;16.03;8.60;;;2.30;42.00;;;;;;5012690;28;20216;-72
2022/03/13 04:01:45;;;;;;;13.83;9.20;;;2.20;42.20;;;;;;5004823;28;20196;-72
2022/03/13 04:04:11;;;;;;;14.47;8.07;;;2.10;42.00;;;;;;5018055;28;20310;-75
2022/03/13 04:06:38;;;;;;;11.80;8.40;;;2.10;42.10;;;;;;5027703;28;20190;-72
2022/03/13 04:09:08;;;;;;;14.57;9.60;;;2.20;42.20;;;;;;5007265;28;20204;-72
2022/03/13 04:11:34;;;;;;;14.07;9.27;;;2.10;42.20;;;;;;5008550;28;20203;-72
2022/03/13 04:14:00;;;;;;;15.23;7.77;;;2.10;42.50;;;;;;5018979;28;20192;-70
2022/03/13 04:16:25;;;;;;;12.93;8.43;;;2.20;42.40;;;;;;5008614;28;20254;-71
2022/03/13 04:18:51;;;;;;;15.77;9.60;;;2.00;42.70;;;;;;4993050;28;20261;-71
2022/03/13 04:21:17;;;;;;;15.03;9.53;;;1.90;43.00;;;;;;4994815;28;20195;-72
2022/03/13 04:23:43;;;;;;;15.93;8.93;;;1.90;43.20;;;;;;5015376;28;20204;-71
2022/03/13 04:26:09;;;;;;;16.20;8.83;;;1.90;43.40;;;;;;5008097;28;20781;-71
2022/03/13 04:28:35;;;;;;;14.80;8.70;;;1.90;43.50;;;;;;5014935;28;20207;-71
2022/03/13 04:31:00;;;;;;;16.07;9.57;;;1.90;43.40;;;;;;5008157;28;20560;-71
2022/03/13 04:33:27;;;;;;;13.63;9.43;;;2.10;43.00;;;;;;5013397;28;20305;-72
2022/03/13 04:35:55;;;;;;;13.93;8.17;;;2.00;43.10;;;;;;5020995;28;20192;-71
2022/03/13 04:38:23;;;;;;;15.27;8.83;;;1.90;43.50;;;;;;5011235;28;20230;-71
2022/03/13 04:40:52;;;;;;;13.20;7.83;;;1.80;43.60;;;;;;5000580;28;20192;-70
2022/03/13 04:43:18;;;;;;;15.93;9.47;;;1.80;43.40;;;;;;5015303;28;20254;-71
2022/03/13 04:45:43;;;;;;;15.40;8.47;;;1.80;43.50;;;;;;5007726;28;20200;-72
2022/03/13 04:48:09;;;;;;;18.10;8.80;;;1.80;43.60;;;;;;5017050;28;20601;-71
2022/03/13 04:50:34;;;;;;;16.53;9.30;;;1.80;43.80;;;;;;5026673;28;20222;-72
2022/03/13 04:53:00;;;;;;;13.93;8.90;;;1.70;43.70;;;;;;5014672;28;20942;-72
2022/03/13 04:55:25;;;;;;;14.00;9.53;;;1.70;43.80;;;;;;5007814;28;20192;-72
2022/03/13 04:57:51;;;;;;;14.27;8.93;;;1.60;43.90;;;;;;5005417;28;20199;-72
2022/03/13 05:00:17;;;;;;;13.07;9.30;;;1.70;43.90;;;;;;5011921;28;20265;-72
2022/03/13 05:02:43;;;;;;;14.07;9.70;;;1.70;43.80;;;;;;4999197;28;20516;-72
2022/03/13 05:05:09;;;;;;;12.40;8.47;;;1.60;44.00;;;;;;5022969;28;20202;-73
2022/03/13 05:07:37;;;;;;;15.10;9.03;;;1.70;43.80;;;;;;5017845;28;20302;-72
2022/03/13 05:10:05;;;;;;;12.43;8.00;;;1.60;44.00;;;;;;5017631;28;20183;-73
2022/03/13 05:12:30;;;;;;;11.37;8.77;;;1.70;43.90;;;;;;5019832;28;20337;-72
2022/03/13 05:14:56;;;;;;;15.53;8.83;;;1.60;43.90;;;;;;5015548;28;20695;-72
2022/03/13 05:17:22;;;;;;;18.87;9.37;;;1.60;44.10;;;;;;5012587;28;20223;-73
2022/03/13 05:19:48;;;;;;;15.07;9.23;;;1.60;44.20;;;;;;5014329;28;20565;-72
2022/03/13 05:22:13;;;;;;;13.87;9.63;;;1.60;44.00;;;;;;5009263;28;20202;-72
2022/03/13 05:24:39;;;;;;;15.50;9.40;;;1.60;43.90;;;;;;5020347;28;20591;-72
2022/03/13 05:27:04;;;;;;;13.70;8.87;;;1.60;44.10;;;;;;5007434;28;20232;-72
2022/03/13 05:29:30;;;;;;;13.47;9.03;;;1.50;44.20;;;;;;5014818;28;20223;-72
2022/03/13 05:31:55;;;;;;;14.30;8.47;;;1.50;44.40;;;;;;5005029;28;20254;-71
2022/03/13 05:34:21;;;;;;;13.83;8.77;;;1.50;44.30;;;;;;5015671;28;20914;-72
2022/03/13 05:36:46;;;;;;;12.33;8.53;;;1.50;43.90;;;;;;5019301;28;20191;-72
2022/03/13 05:39:12;;;;;;;15.67;8.30;;;1.50;44.00;;;;;;5009583;28;20255;-72
2022/03/13 05:41:40;;;;;;;18.17;9.83;;;1.60;44.00;;;;;;5014033;28;20207;-71
2022/03/13 05:44:09;;;;;;;13.37;8.17;;;1.60;44.10;;;;;;5014011;28;20200;-72
2022/03/13 05:46:37;;;;;;;12.03;9.00;;;1.60;44.00;;;;;;5006717;28;20189;-69
2022/03/13 05:49:04;;;;;;;10.40;7.60;;;1.60;44.20;;;;;;5020631;28;20208;-69
2022/03/13 05:51:35;;;;;;;13.77;7.83;;;1.60;44.10;;;;;;5007783;28;20211;-69
2022/03/13 05:54:01;;;;;;;13.43;9.03;;;1.60;44.20;;;;;;5015984;28;20258;-69
2022/03/13 05:56:26;;;;;;;16.33;10.00;;;1.60;44.10;;;;;;5006886;28;20672;-69
2022/03/13 05:58:52;;;;;;;14.90;8.80;;;1.60;44.00;;;;;;5013270;28;20671;-69
2022/03/13 06:01:17;;;;;;;10.73;8.17;;;1.70;44.00;;;;;;5006477;28;20196;-69
2022/03/13 06:03:43;;;;;;;11.33;8.70;;;1.70;44.00;;;;;;5017796;28;21014;-69
2022/03/13 06:06:10;;;;;;;10.63;7.23;;;1.70;44.10;;;;;;5006456;28;20231;-69
2022/03/13 06:08:36;;;;;;;13.77;8.00;;;1.70;44.10;;;;;;5012044;28;20683;-69
2022/03/13 06:11:01;;;;;;;12.87;8.87;;;1.70;43.80;;;;;;5016082;28;20770;-70
2022/03/13 06:13:28;;;;;;;14.93;8.57;;;1.80;43.80;;;;;;5018709;28;20313;-69
2022/03/13 06:15:53;;;;;;;13.57;8.37;;;1.80;43.70;;;;;;5016281;28;20200;-69
2022/03/13 06:18:19;;;;;;;14.27;8.70;;;1.90;43.70;;;;;;5012956;28;20214;-69
2022/03/13 06:20:44;;;;;;;15.70;8.77;;;2.00;43.20;;;;;;5005841;28;20196;-69
2022/03/13 06:23:12;;;;;;;12.23;8.33;;;2.00;43.20;;;;;;5015127;28;20540;-69
2022/03/13 06:25:38;;;;;;;14.20;8.33;;;2.00;42.90;;;;;;5015057;28;20675;-68
2022/03/13 06:28:03;;;;;;;14.17;8.23;;;2.10;43.60;;;;;;5009372;28;20199;-70
2022/03/13 06:30:29;;;;;;;11.77;8.07;;;2.10;43.70;;;;;;5016138;28;20208;-69
2022/03/13 06:32:56;;;;;;;18.43;9.10;;;2.20;44.00;;;;;;5012549;28;20215;-70
2022/03/13 06:35:23;;;;;;;15.70;8.70;;;2.30;44.10;;;;;;5005429;28;20231;-69
2022/03/13 06:37:50;;;;;;;16.97;8.33;;;2.30;44.10;;;;;;5011770;28;20214;-69
2022/03/13 06:40:19;;;;;;;14.17;7.83;;;2.40;43.00;;;;;;5015642;28;20207;-69
2022/03/13 06:42:46;;;;;;;13.67;8.40;;;2.60;43.50;;;;;;5010940;28;20203;-69
2022/03/13 06:45:13;;;;;;;15.47;8.63;;;2.50;42.90;;;;;;5020593;28;20837;-70
2022/03/13 06:47:40;;;;;;;10.33;7.90;;;2.60;42.90;;;;;;5022499;28;20731;-71
2022/03/13 06:50:08;;;;;;;14.47;8.63;;;2.50;42.50;;;;;;5014041;28;20288;-71
2022/03/13 06:52:35;;;;;;;13.17;8.07;;;2.60;42.50;;;;;;5010628;28;20200;-73
2022/03/13 06:55:01;;;;;;;13.30;8.17;;;2.60;42.20;;;;;;5009063;28;20555;-71
2022/03/13 06:57:26;;;;;;;11.93;8.37;;;2.60;41.80;;;;;;5009417;28;20203;-79
2022/03/13 06:59:52;;;;;;;14.80;8.60;;;2.60;42.00;;;;;;5008914;28;20776;-71
2022/03/13 07:02:17;;;;;;;10.23;7.20;;;2.70;42.10;;;;;;5011311;28;20225;-72
2022/03/13 07:04:43;;;;;;;11.23;7.70;;;2.80;41.60;;;;;;5010524;28;20641;-73
2022/03/13 07:07:08;;;;;;;11.83;7.30;;;3.00;41.40;;;;;;5007864;28;20204;-72
2022/03/13 07:09:34;;;;;;;12.57;8.70;;;2.90;41.30;;;;;;5005662;28;20639;-72
2022/03/13 07:12:00;;;;;;;12.97;7.30;;;3.00;41.70;;;;;;5005031;28;20263;-73
2022/03/13 07:14:26;;;;;;;14.40;8.17;;;3.00;42.10;;;;;;5012395;28;20195;-72
2022/03/13 07:16:52;;;;;;;9.20;7.67;;;3.10;42.10;;;;;;5003922;28;20677;-72
2022/03/13 07:19:18;;;;;;;16.60;9.17;;;3.10;41.60;;;;;;5012465;28;20613;-72
2022/03/13 07:21:44;;;;;;;15.77;8.37;;;3.30;40.70;;;;;;5016690;28;20865;-72
2022/03/13 07:24:09;;;;;;;14.13;8.07;;;3.20;40.70;;;;;;5020283;28;20666;-72
2022/03/13 07:26:35;;;;;;;12.27;8.47;;;3.20;40.70;;;;;;5004668;28;20691;-73
2022/03/13 07:29:01;;;;;;;13.87;8.80;;;3.20;40.90;;;;;;5011868;28;20666;-73
2022/03/13 07:31:28;;;;;;;11.17;8.30;;;3.30;41.40;;;;;;5009933;28;20614;-73
2022/03/13 07:33:53;;;;;;;14.00;8.47;;;3.40;41.00;;;;;;5011850;28;20235;-74
2022/03/13 07:36:19;;;;;;;15.90;10.50;;;3.50;40.60;;;;;;5005136;28;20689;-75
2022/03/13 07:38:44;;;;;;;15.97;10.13;;;3.60;41.00;;;;;;5006238;28;20284;-74
2022/03/13 07:41:11;;;;;;;14.37;9.80;;;3.60;40.10;;;;;;5009291;28;20231;-73
2022/03/13 07:43:36;;;;;;;34.37;15.57;;;3.80;40.50;;;;;;5016012;28;20625;-74
2022/03/13 07:46:01;;;;;;;13.43;8.90;;;3.70;40.30;;;;;;5008847;28;20191;-75
2022/03/13 07:48:27;;;;;;;17.30;9.50;;;3.80;40.60;;;;;;5020683;28;20228;-74
2022/03/13 07:50:53;;;;;;;12.60;8.23;;;3.90;39.40;;;;;;5022028;28;20200;-74
2022/03/13 07:53:18;;;;;;;15.37;9.23;;;4.00;39.20;;;;;;5016558;28;20211;-75
2022/03/13 07:55:44;;;;;;;12.30;8.50;;;4.00;39.20;;;;;;5025274;28;20563;-75
2022/03/13 07:58:09;;;;;;;16.67;9.43;;;4.10;39.10;;;;;;5016159;28;20218;-75
2022/03/13 08:00:35;;;;;;;11.97;7.40;;;4.10;38.30;;;;;;5008889;28;20207;-74
2022/03/13 08:03:01;;;;;;;13.90;8.67;;;4.20;38.20;;;;;;5006619;28;20206;-77
2022/03/13 08:05:26;;;;;;;15.87;9.73;;;4.30;38.10;;;;;;5008698;28;20196;-74
2022/03/13 08:07:56;;;;;;;13.43;7.77;;;4.40;38.00;;;;;;5006687;28;20215;-75
2022/03/13 08:10:23;;;;;;;23.20;10.70;;;4.60;37.00;;;;;;5013826;28;20290;-72
2022/03/13 08:12:49;;;;;;;20.17;11.00;;;4.60;37.20;;;;;;5007276;28;20290;-71
2022/03/13 08:15:15;;;;;;;13.47;8.83;;;4.70;37.60;;;;;;5007672;28;20635;-71
2022/03/13 08:17:41;;;;;;;28.63;13.43;;;4.80;37.20;;;;;;5013633;28;20257;-73
2022/03/13 08:20:07;;;;;;;13.33;7.57;;;4.90;36.80;;;;;;5009020;28;20219;-72
2022/03/13 08:22:33;;;;;;;19.07;11.50;;;4.90;36.40;;;;;;5012119;28;20274;-73
2022/03/13 08:24:59;;;;;;;14.30;8.20;;;5.00;36.00;;;;;;5014743;28;20290;-74
2022/03/13 08:27:25;;;;;;;21.80;12.17;;;5.00;35.60;;;;;;5011308;28;20318;-75
2022/03/13 08:29:51;;;;;;;13.10;7.93;;;5.10;36.00;;;;;;5019711;28;20215;-74
2022/03/13 08:32:16;;;;;;;12.63;6.93;;;5.10;35.50;;;;;;5010248;28;20200;-74
2022/03/13 08:34:45;;;;;;;13.33;8.30;;;5.10;35.30;;;;;;5027956;28;20187;-74
2022/03/13 08:37:11;;;;;;;13.27;7.77;;;5.20;35.20;;;;;;5021389;28;20208;-74
2022/03/13 08:39:36;;;;;;;13.33;7.30;;;5.30;35.20;;;;;;5017364;28;20262;-72
2022/03/13 08:42:06;;;;;;;10.17;7.40;;;5.40;34.50;;;;;;5011487;28;20808;-72
2022/03/13 08:44:32;;;;;;;9.77;7.30;;;5.50;34.40;;;;;;5013976;28;20180;-73
2022/03/13 08:46:58;;;;;;;12.73;8.03;;;5.60;34.40;;;;;;5005982;28;21016;-74
2022/03/13 08:49:24;;;;;;;10.23;6.80;;;5.60;34.70;;;;;;5023951;28;20532;-74
2022/03/13 08:51:49;;;;;;;8.87;6.97;;;5.60;33.60;;;;;;5005669;28;20211;-74
2022/03/13 08:54:16;;;;;;;14.47;7.93;;;5.70;34.20;;;;;;5021214;28;20171;-76
2022/03/13 08:56:46;;;;;;;15.70;7.37;;;5.80;33.80;;;;;;5008009;28;20200;-76
2022/03/13 08:59:11;;;;;;;13.60;7.20;;;5.90;34.50;;;;;;5012975;28;20716;-76
2022/03/13 09:01:37;;;;;;;14.03;8.10;;;5.90;34.20;;;;;;5023172;28;20195;-74
2022/03/13 09:04:03;;;;;;;10.50;7.47;;;5.90;33.80;;;;;;5014539;28;20204;-73
2022/03/13 09:06:28;;;;;;;11.40;8.07;;;6.00;34.10;;;;;;5012645;28;20356;-75
2022/03/13 09:08:54;;;;;;;12.50;7.93;;;6.10;33.70;;;;;;5011134;28;20215;-76
2022/03/13 09:11:19;;;;;;;12.23;6.77;;;6.10;33.70;;;;;;5007539;28;20210;-71
2022/03/13 09:13:46;;;;;;;15.37;7.03;;;6.20;33.60;;;;;;5006790;28;20745;-75
2022/03/13 09:16:11;;;;;;;9.50;7.23;;;6.40;33.10;;;;;;5010177;28;20210;-74
2022/03/13 09:18:37;;;;;;;10.00;7.37;;;6.40;33.30;;;;;;5017138;28;20212;-72
2022/03/13 09:21:02;;;;;;;13.30;7.70;;;6.40;33.50;;;;;;5008716;28;20230;-74
2022/03/13 09:23:28;;;;;;;9.37;6.70;;;6.40;33.20;;;;;;5011418;28;20258;-75
2022/03/13 09:25:55;;;;;;;9.83;7.27;;;6.60;33.20;;;;;;5008548;28;20230;-77
2022/03/13 09:28:21;;;;;;;10.57;6.97;;;6.60;32.70;;;;;;5009848;28;20696;-75
2022/03/13 09:30:48;;;;;;;11.07;6.60;;;6.80;32.80;;;;;;5015505;28;20193;-74
2022/03/13 09:33:14;;;;;;;11.07;7.13;;;7.00;32.50;;;;;;5017717;28;20277;-74
2022/03/13 09:35:39;;;;;;;8.27;6.07;;;7.00;32.10;;;;;;5007352;28;20211;-74
2022/03/13 09:38:05;;;;;;;11.67;7.30;;;7.20;31.90;;;;;;5011369;28;20191;-78
2022/03/13 09:40:33;;;;;;;11.67;8.60;;;7.20;31.60;;;;;;4999343;28;20213;-73
2022/03/13 09:43:05;;;;;;;9.53;6.67;;;7.30;32.00;;;;;;5013674;28;20215;-74
2022/03/13 09:45:31;;;;;;;10.20;5.53;;;7.30;31.60;;;;;;4998935;28;20214;-77
2022/03/13 09:47:57;;;;;;;11.13;6.93;;;7.50;32.00;;;;;;5013570;28;20658;-77
2022/03/13 09:50:22;;;;;;;9.17;6.07;;;7.70;31.90;;;;;;5006762;28;20191;-79
2022/03/13 09:52:48;;;;;;;9.60;7.03;;;7.80;31.00;;;;;;5005185;28;20229;-76
2022/03/13 09:55:14;;;;;;;10.90;7.47;;;7.80;31.20;;;;;;5011139;28;20704;-75
2022/03/13 09:57:42;;;;;;;11.77;7.27;;;7.80;30.10;;;;;;5015717;28;20249;-75
2022/03/13 10:00:13;;;;;;;9.37;6.70;;;7.90;30.50;;;;;;5016107;28;20299;-75
2022/03/13 10:02:39;;;;;;;10.60;6.33;;;8.10;30.20;;;;;;5014023;28;20278;-74
2022/03/13 10:05:09;;;;;;;8.40;6.93;;;8.10;30.30;;;;;;5018304;28;20191;-78
2022/03/13 10:07:52;;;;;;;10.40;7.10;;;8.30;30.00;;;;;;5012820;28;20196;-78
2022/03/13 10:10:18;;;;;;;7.53;5.97;;;8.40;28.90;;;;;;5006476;28;20197;-78
2022/03/13 10:12:44;;;;;;;8.70;6.03;;;8.50;28.20;;;;;;5004188;28;20207;-79
2022/03/13 10:15:11;;;;;;;7.23;5.87;;;8.50;28.20;;;;;;5023323;28;20209;-77
2022/03/13 10:17:38;;;;;;;8.43;5.90;;;8.60;28.30;;;;;;5010610;28;20610;-77
2022/03/13 10:20:24;;;;;;;8.23;6.07;;;8.70;28.10;;;;;;5007325;28;20233;-76
2022/03/13 10:23:02;;;;;;;10.97;6.50;;;8.80;28.20;;;;;;5004814;28;20207;-78
2022/03/13 10:25:36;;;;;;;6.93;6.23;;;8.80;28.30;;;;;;4997301;28;20316;-79
2022/03/13 10:28:24;;;;;;;7.67;6.00;;;8.90;28.50;;;;;;5019089;28;20278;-76
2022/03/13 10:30:56;;;;;;;10.03;5.80;;;8.90;28.20;;;;;;4988497;28;20195;-77
2022/03/13 10:33:21;;;;;;;8.17;5.77;;;9.00;27.60;;;;;;5017630;28;20682;-78
2022/03/13 10:35:47;;;;;;;7.47;5.20;;;9.10;27.70;;;;;;4998752;28;20193;-78
2022/03/13 10:38:22;;;;;;;7.77;5.60;;;9.20;27.60;;;;;;5012517;28;20667;-76
2022/03/13 10:40:57;;;;;;;11.67;6.30;;;9.30;28.40;;;;;;5006053;28;20193;-81
2022/03/13 10:43:26;;;;;;;7.60;5.30;;;9.30;27.90;;;;;;5002122;28;20210;-76
2022/03/13 10:45:53;;;;;;;5.20;4.67;;;9.50;27.80;;;;;;5006322;28;20610;-74
2022/03/13 10:48:21;;;;;;;8.73;6.27;;;9.60;27.80;;;;;;5010142;28;20203;-75
2022/03/13 10:50:48;;;;;;;6.20;5.30;;;9.90;27.50;;;;;;5005803;28;20192;-75
2022/03/13 10:53:14;;;;;;;6.97;5.17;;;10.10;26.50;;;;;;5015055;28;20208;-71
2022/03/13 10:55:44;;;;;;;7.80;5.90;;;10.30;26.00;;;;;;5006277;28;20202;-76
2022/03/13 10:58:11;;;;;;;8.10;5.47;;;10.50;26.00;;;;;;5012108;28;20201;-73
2022/03/13 11:00:37;;;;;;;5.50;4.63;;;10.50;25.90;;;;;;5010831;28;20858;-72
2022/03/13 11:03:11;;;;;;;8.43;5.77;;;10.80;26.30;;;;;;5014688;28;20199;-73
2022/03/13 11:05:37;;;;;;;6.07;4.70;;;11.00;25.80;;;;;;5025823;28;20202;-73
2022/03/13 11:08:04;;;;;;;8.20;5.17;;;11.10;25.90;;;;;;5013332;28;20206;-75
2022/03/13 11:10:30;;;;;;;7.37;5.50;;;11.30;26.20;;;;;;5016299;28;20284;-75
2022/03/13 11:12:58;;;;;;;7.67;5.67;;;11.40;25.70;;;;;;5008121;28;20233;-75
2022/03/13 11:15:27;;;;;;;8.17;4.50;;;11.40;25.50;;;;;;5012531;28;20228;-74
2022/03/13 11:17:55;;;;;;;8.13;5.90;;;11.50;25.40;;;;;;4993254;28;20245;-74
2022/03/13 11:20:21;;;;;;;4.93;4.23;;;11.70;25.80;;;;;;5010043;28;20217;-74
2022/03/13 11:22:46;;;;;;;6.17;4.47;;;11.80;25.20;;;;;;4999096;28;20199;-73
2022/03/13 11:25:12;;;;;;;6.03;4.77;;;11.90;25.20;;;;;;5011893;28;20203;-72
2022/03/13 11:27:42;;;;;;;5.77;4.07;;;12.10;24.90;;;;;;5012594;28;20231;-72
2022/03/13 11:30:09;;;;;;;6.07;4.47;;;12.10;24.40;;;;;;5010955;28;20630;-72
2022/03/13 11:32:43;;;;;;;6.93;4.20;;;12.30;24.90;;;;;;5007106;28;20685;-70
2022/03/13 11:35:23;;;;;;;6.87;4.57;;;12.50;24.70;;;;;;5010483;28;20196;-71
2022/03/13 11:38:09;;;;;;;10.73;5.17;;;12.70;24.80;;;;;;5014566;28;20280;-74
2022/03/13 11:40:38;;;;;;;6.10;4.53;;;12.90;25.50;;;;;;5021467;28;20206;-74
2022/03/13 11:43:12;;;;;;;6.60;4.80;;;13.10;25.30;;;;;;5005319;28;20200;-78
2022/03/13 11:45:49;;;;;;;5.60;4.90;;;12.90;24.90;;;;;;4998406;28;20551;-76
2022/03/13 11:48:17;;;;;;;6.40;4.80;;;13.20;25.00;;;;;;4998458;28;20253;-79
2022/03/13 11:50:47;;;;;;;9.27;6.00;;;13.30;24.90;;;;;;5008225;28;20202;-79
2022/03/13 11:53:17;;;;;;;7.60;4.77;;;13.40;24.70;;;;;;5017821;28;20207;-79
2022/03/13 11:55:57;;;;;;;6.47;5.10;;;13.70;24.80;;;;;;5013057;28;20222;-79
2022/03/13 11:58:48;;;;;;;9.43;5.93;;;13.60;23.70;;;;;;5014931;28;20211;-80
2022/03/13 12:01:29;;;;;;;7.33;5.00;;;13.60;23.70;;;;;;5007443;28;20320;-80
2022/03/13 12:04:01;;;;;;;8.00;4.80;;;13.70;23.30;;;;;;5020588;28;20266;-80
2022/03/13 12:06:39;;;;;;;6.97;4.40;;;13.90;23.80;;;;;;5006323;28;20192;-80
2022/03/13 12:09:06;;;;;;;7.27;5.67;;;13.90;23.30;;;;;;5019811;28;20192;-78
2022/03/13 12:11:47;;;;;;;6.70;5.13;;;14.10;23.60;;;;;;4985315;28;20220;-78
2022/03/13 12:14:14;;;;;;;9.90;5.47;;;14.30;23.80;;;;;;5017109;28;20198;-78
2022/03/13 12:16:42;;;;;;;9.37;5.90;;;14.70;23.70;;;;;;5000913;28;20196;-77
2022/03/13 12:19:09;;;;;;;8.27;5.33;;;14.90;23.50;;;;;;5016994;28;20216;-70
2022/03/13 12:21:36;;;;;;;10.30;6.00;;;15.20;24.00;;;;;;5019855;28;20179;-73
2022/03/13 12:24:16;;;;;;;6.67;5.43;;;15.10;23.60;;;;;;5010528;28;20270;-75
2022/03/13 12:26:42;;;;;;;6.60;5.93;;;14.90;23.90;;;;;;5007700;28;20211;-74
2022/03/13 12:29:11;;;;;;;11.53;5.47;;;15.10;24.50;;;;;;4997770;28;20184;-71
2022/03/13 12:31:46;;;;;;;7.40;6.17;;;15.00;23.90;;;;;;5013249;28;20191;-74
2022/03/13 12:34:13;;;;;;;6.87;5.37;;;14.90;24.20;;;;;;5014624;28;20195;-73
2022/03/13 12:36:40;;;;;;;8.10;6.37;;;14.80;24.20;;;;;;5017917;28;20653;-72
2022/03/13 12:39:14;;;;;;;8.30;5.57;;;14.90;24.50;;;;;;5018177;28;20220;-69
2022/03/13 12:41:41;;;;;;;6.90;6.20;;;15.30;24.40;;;;;;5025182;28;20200;-76
2022/03/13 12:44:07;;;;;;;12.63;6.70;;;15.70;24.50;;;;;;5020026;28;20195;-75
2022/03/13 12:46:33;;;;;;;6.77;6.03;;;15.60;24.60;;;;;;5020740;28;20196;-72
2022/03/13 12:49:06;;;;;;;8.87;6.77;;;16.10;24.60;;;;;;5018802;28;20202;-72